sensor_id;sensor_type;location;lat;lon;timestamp;P1;P2;P0
73305;PMS5003;61530;51.158;0.880;2022-12-19T00:00:12;11;11;6
73305;PMS5003;61530;51.158;0.880;2022-12-19T00:01:16;18;11;6
73305;PMS5003;61530;51.158;0.880;2022-12-19T00:02:20;16;12;7
73305;PMS5003;61530;51.158;0.880;2022-12-19T00:03:24;15;13;7
73305;PMS5003;61530;51.158;0.880;2022-12-19T00:04:28;14;13;7
73305;PMS5003;61530;51.158;0.880;2022-12-19T00:05:34;23;20;6
73305;PMS5003;61530;51.158;0.880;2022-12-19T00:06:36;25;17;6
73305;PMS5003;61530;51.158;0.880;2022-12-19T00:07:39;19;15;7
73305;PMS5003;61530;51.158;0.880;2022-12-19T00:08:44;13;11;6
73305;PMS5003;61530;51.158;0.880;2022-12-19T00:09:47;15;11;7
73305;PMS5003;61530;51.158;0.880;2022-12-19T00:10:54;12;11;6
73305;PMS5003;61530;51.158;0.880;2022-12-19T00:11:56;22;16;6
73305;PMS5003;61530;51.158;0.880;2022-12-19T00:13:01;12;11;6
73305;PMS5003;61530;51.158;0.880;2022-12-19T00:14:04;20;15;7
73305;PMS5003;61530;51.158;0.880;2022-12-19T00:15:08;11;10;4
73305;PMS5003;61530;51.158;0.880;2022-12-19T00:16:12;22;15;5
73305;PMS5003;61530;51.158;0.880;2022-12-19T00:17:16;11;11;5
73305;PMS5003;61530;51.158;0.880;2022-12-19T00:18:20;13;12;5
73305;PMS5003;61530;51.158;0.880;2022-12-19T00:19:24;14;9;5
73305;PMS5003;61530;51.158;0.880;2022-12-19T00:20:27;11;11;5
73305;PMS5003;61530;51.158;0.880;2022-12-19T00:21:32;10;10;6
73305;PMS5003;61530;51.158;0.880;2022-12-19T00:22:35;11;7;5
73305;PMS5003;61530;51.158;0.880;2022-12-19T00:23:40;11;10;6
73305;PMS5003;61530;51.158;0.880;2022-12-19T00:24:44;11;7;4
73305;PMS5003;61530;51.158;0.880;2022-12-19T00:25:48;17;11;5
73305;PMS5003;61530;51.158;0.880;2022-12-19T00:26:51;14;13;4
73305;PMS5003;61530;51.158;0.880;2022-12-19T00:27:56;13;13;6
73305;PMS5003;61530;51.158;0.880;2022-12-19T00:29:00;11;8;4
73305;PMS5003;61530;51.158;0.880;2022-12-19T00:30:04;7;5;4
73305;PMS5003;61530;51.158;0.880;2022-12-19T00:31:08;10;10;6
73305;PMS5003;61530;51.158;0.880;2022-12-19T00:32:12;12;8;4
73305;PMS5003;61530;51.158;0.880;2022-12-19T00:33:15;11;7;5
73305;PMS5003;61530;51.158;0.880;2022-12-19T00:34:20;8;7;4
73305;PMS5003;61530;51.158;0.880;2022-12-19T00:35:23;10;8;4
73305;PMS5003;61530;51.158;0.880;2022-12-19T00:36:29;13;10;5
73305;PMS5003;61530;51.158;0.880;2022-12-19T00:37:31;7;7;4
73305;PMS5003;61530;51.158;0.880;2022-12-19T00:38:36;11;8;5
73305;PMS5003;61530;51.158;0.880;2022-12-19T00:39:39;8;8;4
73305;PMS5003;61530;51.158;0.880;2022-12-19T00:40:44;13;7;3
73305;PMS5003;61530;51.158;0.880;2022-12-19T00:41:47;11;6;3
73305;PMS5003;61530;51.158;0.880;2022-12-19T00:42:52;6;6;3
73305;PMS5003;61530;51.158;0.880;2022-12-19T00:43:56;10;7;4
73305;PMS5003;61530;51.158;0.880;2022-12-19T00:45:00;7;7;5
73305;PMS5003;61530;51.158;0.880;2022-12-19T00:46:04;10;10;4
73305;PMS5003;61530;51.158;0.880;2022-12-19T00:47:09;8;7;3
73305;PMS5003;61530;51.158;0.880;2022-12-19T00:48:11;5;5;4
73305;PMS5003;61530;51.158;0.880;2022-12-19T00:49:16;6;6;3
73305;PMS5003;61530;51.158;0.880;2022-12-19T00:50:19;4;4;3
73305;PMS5003;61530;51.158;0.880;2022-12-19T00:51:25;6;6;3
73305;PMS5003;61530;51.158;0.880;2022-12-19T00:52:27;11;8;3
73305;PMS5003;61530;51.158;0.880;2022-12-19T00:53:32;13;11;4
73305;PMS5003;61530;51.158;0.880;2022-12-19T00:54:35;8;6;3
73305;PMS5003;61530;51.158;0.880;2022-12-19T00:55:40;6;6;3
73305;PMS5003;61530;51.158;0.880;2022-12-19T00:56:43;6;6;4
73305;PMS5003;61530;51.158;0.880;2022-12-19T00:57:48;6;6;3
73305;PMS5003;61530;51.158;0.880;2022-12-19T00:58:52;8;7;4
73305;PMS5003;61530;51.158;0.880;2022-12-19T00:59:56;5;5;3
73305;PMS5003;61530;51.158;0.880;2022-12-19T01:01:03;8;5;3
73305;PMS5003;61530;51.158;0.880;2022-12-19T01:02:04;10;8;4
73305;PMS5003;61530;51.158;0.880;2022-12-19T01:03:08;11;10;4
73305;PMS5003;61530;51.158;0.880;2022-12-19T01:04:12;12;8;3
73305;PMS5003;61530;51.158;0.880;2022-12-19T01:05:15;27;26;17
73305;PMS5003;61530;51.158;0.880;2022-12-19T01:06:20;17;14;9
73305;PMS5003;61530;51.158;0.880;2022-12-19T01:07:24;14;11;6
73305;PMS5003;61530;51.158;0.880;2022-12-19T01:08:28;10;6;3
73305;PMS5003;61530;51.158;0.880;2022-12-19T01:09:32;4;4;3
73305;PMS5003;61530;51.158;0.880;2022-12-19T01:10:36;12;6;4
73305;PMS5003;61530;51.158;0.880;2022-12-19T01:11:40;9;8;5
73305;PMS5003;61530;51.158;0.880;2022-12-19T01:12:44;9;6;4
73305;PMS5003;61530;51.158;0.880;2022-12-19T01:13:47;10;8;4
73305;PMS5003;61530;51.158;0.880;2022-12-19T01:14:52;14;7;4
73305;PMS5003;61530;51.158;0.880;2022-12-19T01:15:56;17;17;12
73305;PMS5003;61530;51.158;0.880;2022-12-19T01:17:00;13;13;9
73305;PMS5003;61530;51.158;0.880;2022-12-19T01:18:03;8;6;4
73305;PMS5003;61530;51.158;0.880;2022-12-19T01:19:08;7;6;3
73305;PMS5003;61530;51.158;0.880;2022-12-19T01:20:12;8;7;5
73305;PMS5003;61530;51.158;0.880;2022-12-19T01:21:16;8;7;4
73305;PMS5003;61530;51.158;0.880;2022-12-19T01:22:19;13;9;4
73305;PMS5003;61530;51.158;0.880;2022-12-19T01:23:24;12;6;4
73305;PMS5003;61530;51.158;0.880;2022-12-19T01:24:28;13;13;7
73305;PMS5003;61530;51.158;0.880;2022-12-19T01:25:32;17;17;11
73305;PMS5003;61530;51.158;0.880;2022-12-19T01:26:35;15;14;5
73305;PMS5003;61530;51.158;0.880;2022-12-19T01:27:41;12;11;8
73305;PMS5003;61530;51.158;0.880;2022-12-19T01:28:43;16;15;8
73305;PMS5003;61530;51.158;0.880;2022-12-19T01:29:48;17;15;12
73305;PMS5003;61530;51.158;0.880;2022-12-19T01:30:51;12;12;8
73305;PMS5003;61530;51.158;0.880;2022-12-19T01:31:56;19;14;7
73305;PMS5003;61530;51.158;0.880;2022-12-19T01:33:00;14;14;9
73305;PMS5003;61530;51.158;0.880;2022-12-19T01:34:04;13;11;8
73305;PMS5003;61530;51.158;0.880;2022-12-19T01:35:08;15;14;7
73305;PMS5003;61530;51.158;0.880;2022-12-19T01:36:12;22;22;14
73305;PMS5003;61530;51.158;0.880;2022-12-19T01:37:15;14;12;9
73305;PMS5003;61530;51.158;0.880;2022-12-19T01:38:20;20;16;7
73305;PMS5003;61530;51.158;0.880;2022-12-19T01:39:23;16;15;13
73305;PMS5003;61530;51.158;0.880;2022-12-19T01:40:28;14;13;7
73305;PMS5003;61530;51.158;0.880;2022-12-19T01:41:31;14;9;7
73305;PMS5003;61530;51.158;0.880;2022-12-19T01:42:36;18;14;11
73305;PMS5003;61530;51.158;0.880;2022-12-19T01:43:57;13;13;12
73305;PMS5003;61530;51.158;0.880;2022-12-19T01:45:49;14;12;5
73305;PMS5003;61530;51.158;0.880;2022-12-19T01:45:57;13;9;5
73305;PMS5003;61530;51.158;0.880;2022-12-19T01:47:00;11;11;7
73305;PMS5003;61530;51.158;0.880;2022-12-19T01:48:06;15;13;11
73305;PMS5003;61530;51.158;0.880;2022-12-19T01:49:13;17;17;14
73305;PMS5003;61530;51.158;0.880;2022-12-19T01:50:13;13;12;8
73305;PMS5003;61530;51.158;0.880;2022-12-19T01:51:17;14;14;9
73305;PMS5003;61530;51.158;0.880;2022-12-19T01:52:20;17;16;11
73305;PMS5003;61530;51.158;0.880;2022-12-19T01:53:25;18;15;13
73305;PMS5003;61530;51.158;0.880;2022-12-19T01:54:28;13;13;11
73305;PMS5003;61530;51.158;0.880;2022-12-19T01:55:32;13;13;11
73305;PMS5003;61530;51.158;0.880;2022-12-19T01:56:38;16;15;8
73305;PMS5003;61530;51.158;0.880;2022-12-19T01:57:40;14;11;6
73305;PMS5003;61530;51.158;0.880;2022-12-19T01:58:44;21;14;11
73305;PMS5003;61530;51.158;0.880;2022-12-19T01:59:48;16;12;9
73305;PMS5003;61530;51.158;0.880;2022-12-19T02:00:52;15;15;8
73305;PMS5003;61530;51.158;0.880;2022-12-19T02:01:57;24;17;9
73305;PMS5003;61530;51.158;0.880;2022-12-19T02:03:02;14;14;12
73305;PMS5003;61530;51.158;0.880;2022-12-19T02:04:04;17;15;13
73305;PMS5003;61530;51.158;0.880;2022-12-19T02:05:09;16;15;12
73305;PMS5003;61530;51.158;0.880;2022-12-19T02:06:12;15;11;8
73305;PMS5003;61530;51.158;0.880;2022-12-19T02:07:16;17;16;12
73305;PMS5003;61530;51.158;0.880;2022-12-19T02:08:20;26;23;17
73305;PMS5003;61530;51.158;0.880;2022-12-19T02:09:24;31;31;28
73305;PMS5003;61530;51.158;0.880;2022-12-19T02:10:28;21;19;15
73305;PMS5003;61530;51.158;0.880;2022-12-19T02:11:32;15;15;8
73305;PMS5003;61530;51.158;0.880;2022-12-19T02:12:36;25;25;21
73305;PMS5003;61530;51.158;0.880;2022-12-19T02:13:40;19;18;7
73305;PMS5003;61530;51.158;0.880;2022-12-19T02:14:44;15;14;12
73305;PMS5003;61530;51.158;0.880;2022-12-19T02:15:49;22;19;14
73305;PMS5003;61530;51.158;0.880;2022-12-19T02:16:53;16;15;8
73305;PMS5003;61530;51.158;0.880;2022-12-19T02:17:59;16;15;11
73305;PMS5003;61530;51.158;0.880;2022-12-19T02:19:03;14;14;11
73305;PMS5003;61530;51.158;0.880;2022-12-19T02:20:09;20;19;12
73305;PMS5003;61530;51.158;0.880;2022-12-19T02:21:12;29;29;26
73305;PMS5003;61530;51.158;0.880;2022-12-19T02:22:12;19;18;12
73305;PMS5003;61530;51.158;0.880;2022-12-19T02:23:23;25;21;16
73305;PMS5003;61530;51.158;0.880;2022-12-19T02:24:28;25;24;19
73305;PMS5003;61530;51.158;0.880;2022-12-19T02:25:30;21;17;8
73305;PMS5003;61530;51.158;0.880;2022-12-19T02:26:45;18;16;13
73305;PMS5003;61530;51.158;0.880;2022-12-19T02:28:11;16;16;14
73305;PMS5003;61530;51.158;0.880;2022-12-19T02:28:40;21;18;9
73305;PMS5003;61530;51.158;0.880;2022-12-19T02:29:51;16;15;9
73305;PMS5003;61530;51.158;0.880;2022-12-19T02:30:46;15;13;8
73305;PMS5003;61530;51.158;0.880;2022-12-19T02:31:48;23;22;17
73305;PMS5003;61530;51.158;0.880;2022-12-19T02:32:54;16;15;11
73305;PMS5003;61530;51.158;0.880;2022-12-19T02:33:58;21;15;13
73305;PMS5003;61530;51.158;0.880;2022-12-19T02:35:02;25;19;13
73305;PMS5003;61530;51.158;0.880;2022-12-19T02:36:05;18;17;13
73305;PMS5003;61530;51.158;0.880;2022-12-19T02:37:09;24;23;19
73305;PMS5003;61530;51.158;0.880;2022-12-19T02:38:14;18;17;15
73305;PMS5003;61530;51.158;0.880;2022-12-19T02:39:16;18;16;14
73305;PMS5003;61530;51.158;0.880;2022-12-19T02:40:22;18;16;13
73305;PMS5003;61530;51.158;0.880;2022-12-19T02:41:24;17;15;8
73305;PMS5003;61530;51.158;0.880;2022-12-19T02:42:29;14;14;6
73305;PMS5003;61530;51.158;0.880;2022-12-19T02:43:33;15;14;9
73305;PMS5003;61530;51.158;0.880;2022-12-19T02:44:38;15;15;13
73305;PMS5003;61530;51.158;0.880;2022-12-19T02:45:40;18;16;13
73305;PMS5003;61530;51.158;0.880;2022-12-19T02:46:44;21;13;9
73305;PMS5003;61530;51.158;0.880;2022-12-19T02:47:48;34;33;28
73305;PMS5003;61530;51.158;0.880;2022-12-19T02:48:52;12;12;9
73305;PMS5003;61530;51.158;0.880;2022-12-19T02:49:56;13;13;11
73305;PMS5003;61530;51.158;0.880;2022-12-19T02:51:00;17;16;7
73305;PMS5003;61530;51.158;0.880;2022-12-19T02:52:11;21;21;16
73305;PMS5003;61530;51.158;0.880;2022-12-19T02:53:08;15;13;11
73305;PMS5003;61530;51.158;0.880;2022-12-19T02:54:12;19;17;13
73305;PMS5003;61530;51.158;0.880;2022-12-19T02:55:19;15;15;9
73305;PMS5003;61530;51.158;0.880;2022-12-19T02:56:23;22;21;16
73305;PMS5003;61530;51.158;0.880;2022-12-19T02:57:26;21;17;11
73305;PMS5003;61530;51.158;0.880;2022-12-19T02:58:32;15;14;11
73305;PMS5003;61530;51.158;0.880;2022-12-19T02:59:34;17;16;8
73305;PMS5003;61530;51.158;0.880;2022-12-19T03:00:37;13;13;5
73305;PMS5003;61530;51.158;0.880;2022-12-19T03:01:41;12;11;6
73305;PMS5003;61530;51.158;0.880;2022-12-19T03:02:45;14;13;8
73305;PMS5003;61530;51.158;0.880;2022-12-19T03:03:51;17;15;12
73305;PMS5003;61530;51.158;0.880;2022-12-19T03:04:53;19;16;7
73305;PMS5003;61530;51.158;0.880;2022-12-19T03:05:59;14;13;7
73305;PMS5003;61530;51.158;0.880;2022-12-19T03:07:00;15;13;9
73305;PMS5003;61530;51.158;0.880;2022-12-19T03:08:06;17;13;11
73305;PMS5003;61530;51.158;0.880;2022-12-19T03:09:09;19;17;14
73305;PMS5003;61530;51.158;0.880;2022-12-19T03:10:14;20;18;9
73305;PMS5003;61530;51.158;0.880;2022-12-19T03:11:16;17;15;11
73305;PMS5003;61530;51.158;0.880;2022-12-19T03:12:21;19;18;9
73305;PMS5003;61530;51.158;0.880;2022-12-19T03:13:26;19;14;11
73305;PMS5003;61530;51.158;0.880;2022-12-19T03:14:28;13;13;8
73305;PMS5003;61530;51.158;0.880;2022-12-19T03:15:32;17;16;13
73305;PMS5003;61530;51.158;0.880;2022-12-19T03:16:36;19;18;11
73305;PMS5003;61530;51.158;0.880;2022-12-19T03:17:40;16;15;11
73305;PMS5003;61530;51.158;0.880;2022-12-19T03:18:44;17;16;9
73305;PMS5003;61530;51.158;0.880;2022-12-19T03:19:48;12;12;8
73305;PMS5003;61530;51.158;0.880;2022-12-19T03:20:54;17;17;12
73305;PMS5003;61530;51.158;0.880;2022-12-19T03:21:56;21;17;9
73305;PMS5003;61530;51.158;0.880;2022-12-19T03:23:00;13;11;7
73305;PMS5003;61530;51.158;0.880;2022-12-19T03:24:06;16;13;9
73305;PMS5003;61530;51.158;0.880;2022-12-19T03:25:08;21;16;14
73305;PMS5003;61530;51.158;0.880;2022-12-19T03:26:13;11;11;7
73305;PMS5003;61530;51.158;0.880;2022-12-19T03:27:18;15;13;8
73305;PMS5003;61530;51.158;0.880;2022-12-19T03:28:21;19;14;9
73305;PMS5003;61530;51.158;0.880;2022-12-19T03:29:26;13;12;8
73305;PMS5003;61530;51.158;0.880;2022-12-19T03:30:28;16;13;9
73305;PMS5003;61530;51.158;0.880;2022-12-19T03:31:32;17;14;9
73305;PMS5003;61530;51.158;0.880;2022-12-19T03:32:36;25;17;8
73305;PMS5003;61530;51.158;0.880;2022-12-19T03:33:40;21;19;8
73305;PMS5003;61530;51.158;0.880;2022-12-19T03:34:45;17;16;9
73305;PMS5003;61530;51.158;0.880;2022-12-19T03:35:48;15;15;12
73305;PMS5003;61530;51.158;0.880;2022-12-19T03:36:52;17;14;11
73305;PMS5003;61530;51.158;0.880;2022-12-19T03:37:56;18;14;9
73305;PMS5003;61530;51.158;0.880;2022-12-19T03:39:00;17;15;9
73305;PMS5003;61530;51.158;0.880;2022-12-19T03:40:06;9;9;7
73305;PMS5003;61530;51.158;0.880;2022-12-19T03:41:08;16;13;8
73305;PMS5003;61530;51.158;0.880;2022-12-19T03:42:12;19;14;9
73305;PMS5003;61530;51.158;0.880;2022-12-19T03:43:16;14;12;8
73305;PMS5003;61530;51.158;0.880;2022-12-19T03:44:20;14;13;9
73305;PMS5003;61530;51.158;0.880;2022-12-19T03:45:25;14;13;8
73305;PMS5003;61530;51.158;0.880;2022-12-19T03:46:28;18;11;5
73305;PMS5003;61530;51.158;0.880;2022-12-19T03:47:32;9;7;5
73305;PMS5003;61530;51.158;0.880;2022-12-19T03:48:39;20;13;6
73305;PMS5003;61530;51.158;0.880;2022-12-19T03:49:40;12;11;6
73305;PMS5003;61530;51.158;0.880;2022-12-19T03:50:45;18;14;5
73305;PMS5003;61530;51.158;0.880;2022-12-19T03:51:50;12;7;4
73305;PMS5003;61530;51.158;0.880;2022-12-19T03:52:54;13;12;4
73305;PMS5003;61530;51.158;0.880;2022-12-19T03:53:57;16;9;5
73305;PMS5003;61530;51.158;0.880;2022-12-19T03:55:02;9;8;5
73305;PMS5003;61530;51.158;0.880;2022-12-19T03:56:05;12;7;5
73305;PMS5003;61530;51.158;0.880;2022-12-19T03:57:09;9;7;4
73305;PMS5003;61530;51.158;0.880;2022-12-19T03:58:12;14;11;6
73305;PMS5003;61530;51.158;0.880;2022-12-19T03:59:17;9;8;5
73305;PMS5003;61530;51.158;0.880;2022-12-19T04:00:20;10;7;3
73305;PMS5003;61530;51.158;0.880;2022-12-19T04:01:24;14;12;5
73305;PMS5003;61530;51.158;0.880;2022-12-19T04:02:28;9;7;4
73305;PMS5003;61530;51.158;0.880;2022-12-19T04:03:32;9;7;4
73305;PMS5003;61530;51.158;0.880;2022-12-19T04:04:36;9;8;4
73305;PMS5003;61530;51.158;0.880;2022-12-19T04:05:40;7;7;5
73305;PMS5003;61530;51.158;0.880;2022-12-19T04:06:44;13;10;4
73305;PMS5003;61530;51.158;0.880;2022-12-19T04:07:48;8;8;5
73305;PMS5003;61530;51.158;0.880;2022-12-19T04:08:52;9;7;6
73305;PMS5003;61530;51.158;0.880;2022-12-19T04:09:56;14;10;4
73305;PMS5003;61530;51.158;0.880;2022-12-19T04:11:02;9;7;4
73305;PMS5003;61530;51.158;0.880;2022-12-19T04:12:05;14;9;4
73305;PMS5003;61530;51.158;0.880;2022-12-19T04:13:08;7;6;4
73305;PMS5003;61530;51.158;0.880;2022-12-19T04:14:13;15;8;4
73305;PMS5003;61530;51.158;0.880;2022-12-19T04:15:16;12;8;5
73305;PMS5003;61530;51.158;0.880;2022-12-19T04:16:22;12;8;4
73305;PMS5003;61530;51.158;0.880;2022-12-19T04:17:25;9;7;3
73305;PMS5003;61530;51.158;0.880;2022-12-19T04:18:28;13;7;5
73305;PMS5003;61530;51.158;0.880;2022-12-19T04:19:33;9;8;5
73305;PMS5003;61530;51.158;0.880;2022-12-19T04:20:36;13;8;4
73305;PMS5003;61530;51.158;0.880;2022-12-19T04:21:40;13;7;4
73305;PMS5003;61530;51.158;0.880;2022-12-19T04:22:46;6;6;4
73305;PMS5003;61530;51.158;0.880;2022-12-19T04:23:49;8;7;5
73305;PMS5003;61530;51.158;0.880;2022-12-19T04:24:52;6;6;4
73305;PMS5003;61530;51.158;0.880;2022-12-19T04:25:56;9;7;4
73305;PMS5003;61530;51.158;0.880;2022-12-19T04:27:00;7;7;4
73305;PMS5003;61530;51.158;0.880;2022-12-19T04:28:05;8;7;5
73305;PMS5003;61530;51.158;0.880;2022-12-19T04:29:09;8;8;3
73305;PMS5003;61530;51.158;0.880;2022-12-19T04:30:12;9;8;4
73305;PMS5003;61530;51.158;0.880;2022-12-19T04:31:16;12;11;4
73305;PMS5003;61530;51.158;0.880;2022-12-19T04:32:20;9;6;4
73305;PMS5003;61530;51.158;0.880;2022-12-19T04:33:24;12;8;4
73305;PMS5003;61530;51.158;0.880;2022-12-19T04:34:28;9;6;4
73305;PMS5003;61530;51.158;0.880;2022-12-19T04:35:32;6;6;3
73305;PMS5003;61530;51.158;0.880;2022-12-19T04:36:36;8;8;4
73305;PMS5003;61530;51.158;0.880;2022-12-19T04:37:40;13;8;4
73305;PMS5003;61530;51.158;0.880;2022-12-19T04:38:44;14;10;4
73305;PMS5003;61530;51.158;0.880;2022-12-19T04:39:48;9;8;5
73305;PMS5003;61530;51.158;0.880;2022-12-19T04:40:52;10;8;5
73305;PMS5003;61530;51.158;0.880;2022-12-19T04:41:56;9;9;5
73305;PMS5003;61530;51.158;0.880;2022-12-19T04:43:00;7;7;4
73305;PMS5003;61530;51.158;0.880;2022-12-19T04:44:04;13;12;5
73305;PMS5003;61530;51.158;0.880;2022-12-19T04:45:08;14;8;4
73305;PMS5003;61530;51.158;0.880;2022-12-19T04:46:12;13;12;5
73305;PMS5003;61530;51.158;0.880;2022-12-19T04:47:16;9;8;6
73305;PMS5003;61530;51.158;0.880;2022-12-19T04:48:20;12;8;4
73305;PMS5003;61530;51.158;0.880;2022-12-19T04:49:24;14;10;5
73305;PMS5003;61530;51.158;0.880;2022-12-19T04:50:28;9;7;4
73305;PMS5003;61530;51.158;0.880;2022-12-19T04:51:32;14;12;5
73305;PMS5003;61530;51.158;0.880;2022-12-19T04:52:36;12;6;4
73305;PMS5003;61530;51.158;0.880;2022-12-19T04:53:40;13;10;5
73305;PMS5003;61530;51.158;0.880;2022-12-19T04:54:44;9;6;4
73305;PMS5003;61530;51.158;0.880;2022-12-19T04:55:48;9;8;4
73305;PMS5003;61530;51.158;0.880;2022-12-19T04:56:52;9;9;5
73305;PMS5003;61530;51.158;0.880;2022-12-19T04:57:56;12;10;5
73305;PMS5003;61530;51.158;0.880;2022-12-19T04:59:00;10;8;3
73305;PMS5003;61530;51.158;0.880;2022-12-19T05:00:04;8;7;5
73305;PMS5003;61530;51.158;0.880;2022-12-19T05:01:08;14;13;5
73305;PMS5003;61530;51.158;0.880;2022-12-19T05:02:12;12;8;4
73305;PMS5003;61530;51.158;0.880;2022-12-19T05:03:16;15;10;4
73305;PMS5003;61530;51.158;0.880;2022-12-19T05:04:20;10;8;4
73305;PMS5003;61530;51.158;0.880;2022-12-19T05:05:24;12;8;4
73305;PMS5003;61530;51.158;0.880;2022-12-19T05:06:28;13;9;4
73305;PMS5003;61530;51.158;0.880;2022-12-19T05:07:32;12;8;4
73305;PMS5003;61530;51.158;0.880;2022-12-19T05:08:36;7;7;5
73305;PMS5003;61530;51.158;0.880;2022-12-19T05:09:40;13;8;5
73305;PMS5003;61530;51.158;0.880;2022-12-19T05:10:44;13;8;4
73305;PMS5003;61530;51.158;0.880;2022-12-19T05:11:48;10;10;5
73305;PMS5003;61530;51.158;0.880;2022-12-19T05:12:52;8;8;5
73305;PMS5003;61530;51.158;0.880;2022-12-19T05:13:57;12;10;6
73305;PMS5003;61530;51.158;0.880;2022-12-19T05:15:00;7;7;4
73305;PMS5003;61530;51.158;0.880;2022-12-19T05:16:05;7;6;3
73305;PMS5003;61530;51.158;0.880;2022-12-19T05:17:10;8;7;4
73305;PMS5003;61530;51.158;0.880;2022-12-19T05:18:12;8;8;4
73305;PMS5003;61530;51.158;0.880;2022-12-19T05:19:16;5;5;3
73305;PMS5003;61530;51.158;0.880;2022-12-19T05:20:20;7;6;3
73305;PMS5003;61530;51.158;0.880;2022-12-19T05:21:24;8;8;3
73305;PMS5003;61530;51.158;0.880;2022-12-19T05:22:28;8;6;3
73305;PMS5003;61530;51.158;0.880;2022-12-19T05:23:32;8;8;5
73305;PMS5003;61530;51.158;0.880;2022-12-19T05:24:36;9;7;3
73305;PMS5003;61530;51.158;0.880;2022-12-19T05:25:39;9;6;3
73305;PMS5003;61530;51.158;0.880;2022-12-19T05:26:44;12;8;4
73305;PMS5003;61530;51.158;0.880;2022-12-19T05:27:48;8;7;4
73305;PMS5003;61530;51.158;0.880;2022-12-19T05:28:52;8;7;5
73305;PMS5003;61530;51.158;0.880;2022-12-19T05:29:56;8;7;5
73305;PMS5003;61530;51.158;0.880;2022-12-19T05:31:02;9;5;3
73305;PMS5003;61530;51.158;0.880;2022-12-19T05:32:04;6;6;4
73305;PMS5003;61530;51.158;0.880;2022-12-19T05:33:08;7;7;4
73305;PMS5003;61530;51.158;0.880;2022-12-19T05:34:12;8;7;6
73305;PMS5003;61530;51.158;0.880;2022-12-19T05:35:16;7;7;4
73305;PMS5003;61530;51.158;0.880;2022-12-19T05:36:20;12;6;4
73305;PMS5003;61530;51.158;0.880;2022-12-19T05:37:24;9;6;3
73305;PMS5003;61530;51.158;0.880;2022-12-19T05:38:28;10;7;4
73305;PMS5003;61530;51.158;0.880;2022-12-19T05:39:32;12;9;5
73305;PMS5003;61530;51.158;0.880;2022-12-19T05:40:36;9;8;4
73305;PMS5003;61530;51.158;0.880;2022-12-19T05:41:40;12;8;5
73305;PMS5003;61530;51.158;0.880;2022-12-19T05:42:44;12;8;4
73305;PMS5003;61530;51.158;0.880;2022-12-19T05:43:49;13;6;4
73305;PMS5003;61530;51.158;0.880;2022-12-19T05:44:52;9;9;5
73305;PMS5003;61530;51.158;0.880;2022-12-19T05:45:56;12;12;5
73305;PMS5003;61530;51.158;0.880;2022-12-19T05:46:59;12;8;5
73305;PMS5003;61530;51.158;0.880;2022-12-19T05:48:04;12;9;5
73305;PMS5003;61530;51.158;0.880;2022-12-19T05:49:08;13;9;4
73305;PMS5003;61530;51.158;0.880;2022-12-19T05:50:12;13;9;5
73305;PMS5003;61530;51.158;0.880;2022-12-19T05:51:16;9;7;4
73305;PMS5003;61530;51.158;0.880;2022-12-19T05:52:20;12;8;5
73305;PMS5003;61530;51.158;0.880;2022-12-19T05:53:24;6;6;3
73305;PMS5003;61530;51.158;0.880;2022-12-19T05:54:28;9;9;5
73305;PMS5003;61530;51.158;0.880;2022-12-19T05:55:32;13;7;4
73305;PMS5003;61530;51.158;0.880;2022-12-19T05:56:36;14;7;3
73305;PMS5003;61530;51.158;0.880;2022-12-19T05:57:40;8;6;3
73305;PMS5003;61530;51.158;0.880;2022-12-19T05:58:44;13;10;6
73305;PMS5003;61530;51.158;0.880;2022-12-19T05:59:47;8;6;4
73305;PMS5003;61530;51.158;0.880;2022-12-19T06:00:52;9;9;3
73305;PMS5003;61530;51.158;0.880;2022-12-19T06:01:56;10;8;4
73305;PMS5003;61530;51.158;0.880;2022-12-19T06:03:00;10;7;5
73305;PMS5003;61530;51.158;0.880;2022-12-19T06:04:04;13;7;5
73305;PMS5003;61530;51.158;0.880;2022-12-19T06:05:08;12;10;5
73305;PMS5003;61530;51.158;0.880;2022-12-19T06:06:13;13;9;5
73305;PMS5003;61530;51.158;0.880;2022-12-19T06:07:16;6;6;4
73305;PMS5003;61530;51.158;0.880;2022-12-19T06:08:19;10;6;3
73305;PMS5003;61530;51.158;0.880;2022-12-19T06:09:24;8;6;4
73305;PMS5003;61530;51.158;0.880;2022-12-19T06:10:28;9;7;4
73305;PMS5003;61530;51.158;0.880;2022-12-19T06:11:32;12;8;5
73305;PMS5003;61530;51.158;0.880;2022-12-19T06:12:36;9;8;4
73305;PMS5003;61530;51.158;0.880;2022-12-19T06:13:40;11;7;4
73305;PMS5003;61530;51.158;0.880;2022-12-19T06:14:44;10;8;4
73305;PMS5003;61530;51.158;0.880;2022-12-19T06:15:48;9;6;4
73305;PMS5003;61530;51.158;0.880;2022-12-19T06:16:52;13;9;5
73305;PMS5003;61530;51.158;0.880;2022-12-19T06:17:56;13;8;3
73305;PMS5003;61530;51.158;0.880;2022-12-19T06:19:00;9;8;4
73305;PMS5003;61530;51.158;0.880;2022-12-19T06:20:05;10;7;3
73305;PMS5003;61530;51.158;0.880;2022-12-19T06:21:09;9;8;6
73305;PMS5003;61530;51.158;0.880;2022-12-19T06:22:12;8;7;5
73305;PMS5003;61530;51.158;0.880;2022-12-19T06:23:16;7;7;5
73305;PMS5003;61530;51.158;0.880;2022-12-19T06:24:20;9;8;4
73305;PMS5003;61530;51.158;0.880;2022-12-19T06:25:23;13;9;5
73305;PMS5003;61530;51.158;0.880;2022-12-19T06:26:28;10;8;4
73305;PMS5003;61530;51.158;0.880;2022-12-19T06:27:32;16;9;5
73305;PMS5003;61530;51.158;0.880;2022-12-19T06:28:36;16;15;7
73305;PMS5003;61530;51.158;0.880;2022-12-19T06:29:39;10;6;4
73305;PMS5003;61530;51.158;0.880;2022-12-19T06:30:44;8;6;3
73305;PMS5003;61530;51.158;0.880;2022-12-19T06:31:48;12;9;5
73305;PMS5003;61530;51.158;0.880;2022-12-19T06:32:52;7;7;5
73305;PMS5003;61530;51.158;0.880;2022-12-19T06:33:56;15;9;5
73305;PMS5003;61530;51.158;0.880;2022-12-19T06:35:00;12;7;5
73305;PMS5003;61530;51.158;0.880;2022-12-19T06:36:05;8;8;4
73305;PMS5003;61530;51.158;0.880;2022-12-19T06:37:08;14;11;7
73305;PMS5003;61530;51.158;0.880;2022-12-19T06:38:11;13;10;5
73305;PMS5003;61530;51.158;0.880;2022-12-19T06:39:16;9;8;4
73305;PMS5003;61530;51.158;0.880;2022-12-19T06:40:20;14;13;8
73305;PMS5003;61530;51.158;0.880;2022-12-19T06:41:24;13;9;5
73305;PMS5003;61530;51.158;0.880;2022-12-19T06:42:27;7;7;5
73305;PMS5003;61530;51.158;0.880;2022-12-19T06:43:32;19;17;5
73305;PMS5003;61530;51.158;0.880;2022-12-19T06:44:36;8;6;4
73305;PMS5003;61530;51.158;0.880;2022-12-19T06:45:40;14;12;6
73305;PMS5003;61530;51.158;0.880;2022-12-19T06:46:43;7;7;4
73305;PMS5003;61530;51.158;0.880;2022-12-19T06:47:48;13;9;4
73305;PMS5003;61530;51.158;0.880;2022-12-19T06:48:52;10;6;4
73305;PMS5003;61530;51.158;0.880;2022-12-19T06:49:56;9;8;5
73305;PMS5003;61530;51.158;0.880;2022-12-19T06:50:59;10;8;4
73305;PMS5003;61530;51.158;0.880;2022-12-19T06:52:04;11;8;5
73305;PMS5003;61530;51.158;0.880;2022-12-19T06:53:08;13;8;3
73305;PMS5003;61530;51.158;0.880;2022-12-19T06:54:13;9;8;5
73305;PMS5003;61530;51.158;0.880;2022-12-19T06:55:15;13;8;4
73305;PMS5003;61530;51.158;0.880;2022-12-19T06:56:20;13;8;4
73305;PMS5003;61530;51.158;0.880;2022-12-19T06:57:24;12;7;3
73305;PMS5003;61530;51.158;0.880;2022-12-19T06:58:28;8;8;5
73305;PMS5003;61530;51.158;0.880;2022-12-19T06:59:32;12;10;4
73305;PMS5003;61530;51.158;0.880;2022-12-19T07:00:36;10;10;6
73305;PMS5003;61530;51.158;0.880;2022-12-19T07:01:43;9;7;5